AirNav   Everest Fuels
 
 1067 users online  

5NC2 Sugar Valley Airport
Mocksville, North Carolina, USA

GOING TO MOCKSVILLE?


FAA INFORMATION EFFECTIVE 01 DECEMBER 2022

Location

FAA Identifier: 5NC2
Lat/Long: 35-59-05.5000N 080-30-41.1000W
35-59.091667N 080-30.685000W
35.9848611,-80.5114167
(estimated)
Elevation: 731 ft. / 222.8 m (surveyed)
Variation: 06W (1985)
From city: 6 miles NE of MOCKSVILLE, NC
Time zone: UTC -5 (UTC -4 during Daylight Saving Time)
Zip code: 27028

Airport Operations

Airport use: Private use. Permission required prior to landing
Activation date: 04/1970
Control tower: no
ARTCC: ATLANTA CENTER
FSS: RALEIGH FLIGHT SERVICE STATION
Attendance: 0700--DUSK
Pattern altitude: 1500 ft. MSL
Wind indicator: lighted
Segmented circle: no
Lights: TO ACTVT LIRL RWY 02L/20R, KEY 123.00 5 TIMES.

Airport Communications

UNICOM: 123.0
WX AWOS-3 at EXX (16 nm SE): 119.825 (336-956-2967)
WX ASOS at INT (17 nm NE): PHONE 336-661-3096

Nearby radio navigation aids

VOR radial/distance  VOR name  Freq  Var
GSOr265/26.2GREENSBORO VORTAC116.2003W
BZMr085/36.1BARRETTS MOUNTAIN VOR/DME113.7506W

Airport Services

Parking: tiedowns
Airframe service: NONE
Powerplant service: NONE
Bottled oxygen: NONE
Bulk oxygen: NONE

Runway Information

Runway 2L/20R

Dimensions: 2424 x 36 ft. / 739 x 11 m
Surface: asphalt, in good condition
Runway edge lights: non-standard
NSTD LIRL; NOT FAA APPROVED L-800 SERIES. THLD LGTS 13 FT FM PAVEMENT.
Runway edge markings: RY 02L/20R NRS ARE SMALLER THAN STANDARD.
RUNWAY 2L  RUNWAY 20R
Latitude: 35-58.894175N35-59.287968N
Longitude: 080-30.726007W080-30.642330W
Elevation: 716.0 ft.720.0 ft.
Traffic pattern: rightleft
Runway heading: 016 magnetic, 010 true196 magnetic, 190 true
Markings: NSTD, in fair conditionNSTD, in fair condition
Obstructions: 60 ft. trees, 660 ft. from runway, 58 ft. right of centerline, 7:1 slope to clear60 ft. trees, 200 ft. from runway
RY 20R HAS 60 FT TREES 50 FT FM THLD ON CNTRLN.

Runway 2R/20L

Dimensions: 1000 x 35 ft. / 305 x 11 m
Surface: turf, in good condition
RUNWAY 2R  RUNWAY 20L
Traffic pattern: rightleft
Obstructions: 60 ft. trees, 1500 ft. from runway60 ft. trees, 900 ft. from runway

Airport Ownership and Management from official FAA records

Ownership: Privately-owned
Owner: HUMAN SERVICE ALLIANCE, INC.
249 GILBERT ROAD
MOCKSVILLE, NC 27028
Phone 336-998-3971
Manager: J. TODD THORNBURG
249 GILBERT ROAD
MOCKSVILLE, NC 27028
Phone 336-998-3971

Airport Operational Statistics

Aircraft based on the field: 14
Single engine airplanes: 14
    
Aircraft operations: avg 50/week *
77% local general aviation
23% transient general aviation
* for 12-month period ending 28 May 2009

Additional Remarks

RECOMMEND LANDING RY 02L AND TAKEOFF RY 20R DUE TO OBSTRUCTING TREES ON NE END.
RY 02L/20R SAFETY AREA HAS HAZARDOUS DEPRESSIONS AS CLOSE AS 15 FT FROM PAVEMENT.
ARPT CLSD TO TRANSIENT ACFT 1800-0600.
DAY VFR OPNS FOR TSNT ACFT ONLY.
FOR CD CTC ATLANTA ARTCC AT 770-210-7692.

Instrument Procedures

There are no published instrument procedures at 5NC2.

Some nearby airports with instrument procedures:

8A7 - Twin Lakes Airport (5 nm SE)
KEXX - Davidson County Airport (16 nm SE)
KINT - Smith Reynolds Airport (17 nm NE)
KRUQ - Mid-Carolina Regional Airport (20 nm S)
KZEF - Elkin Municipal Airport (22 nm NW)
 
Loc | Ops | Rwys | IFR | FBO | Links
Com | Nav | Svcs | Stats | Notes
Area around 5NC2 (Sugar Valley Airport)
 
Road maps at: MapQuest Bing Google
 
Aerial photo
WARNING: Photo may not be current or correct
Aerial photo of 5NC2 (Sugar Valley Airport)
Photo by Deborah Leighton
Taken in 2015
looking southwest

Do you have a better or more recent aerial photo of Sugar Valley Airport that you would like to share? If so, please send us your photo.

 
Sectional chart

 
Airport distance calculator
Flying to Sugar Valley Airport? Find the distance to fly.

From to 5NC2

Sunrise and sunset
Times for 06-Dec-2022
 Local
(UTC-5)
 Zulu
(UTC)
Morning civil twilight06:5111:51
Sunrise07:1912:19
Sunset17:0722:07
Evening civil twilight17:3522:35

Current date and time
Zulu (UTC)  07-Dec-2022 03:31:03
Local (UTC-5)  06-Dec-2022 22:31:03
 
METAR
KEXX 
16nm SE 
070315Z AUTO 00000KT 3/4SM BR OVC002 09/09 A3025 RMK AO2 T00920092
KINT 
17nm NE 
070317Z AUTO 00000KT 1 1/4SM BR OVC002 09/09 A3026 RMK AO2 T00940094
KRUQ 
20nm S 
070315Z AUTO 00000KT 3/4SM BR OVC002 09/09 A3025 RMK AO2 T00860085
KSVH 
26nm SW 
070315Z AUTO 00000KT 1/4SM FG OVC002 08/08 A3025 RMK AO2 T00830080
KGSO 
28nm E 
070254Z 22005KT 1/4SM R05R/3500V4500FT BR VV002 10/09 A3023 RMK AO2 SFC VIS 3/4 SLP239 60001 T01000094 51002
KMWK 
29nm N 
070315Z AUTO 00000KT 2 1/2SM BR OVC007 07/07 A3027 RMK AO2 T00720070
TAF
KINT 
17nm NE 
061728Z 0618/0718 30003KT 1 1/2SM -RA BR OVC003 FM062200 VRB02KT 1 1/2SM BR OVC003 FM070400 VRB02KT 1/2SM FG OVC002
NOTAMs
Click for the latest NOTAMs
NOTAMs are issued by the DoD/FAA and will open in a separate window not controlled by AirNav.

 

 
 

Would you like to see your business listed on this page?

 If your business provides an interesting product or service to pilots, flight crews, aircraft, or users of the Sugar Valley Airport, you should consider listing it here.  To start the listing process, click on the button below
 
Add a business
 

Other Pages about Sugar Valley Airport

www.sugarvalleyairport.org
 
Update a link
 
Copyright © AirNav, LLC. All rights reserved. Privacy Policy  Contact